Arab, MO

8:12 PM CDT on July 22, 2014 (GMT -0500)
rural (KMOWHITE2) Elev 410 ft | 37.24 °N, 89.86 °W | Change Station

Current weather conditions updated 23 seconds ago

Clear
Clear
79.4 °F
Feels Like 83 °F
N
0.0
Wind Variable Wind from SE
Gusts 1.0 mph

Tomorrow is forecast to be nearly the same temperature as today. Scattered thunderstorms.

Today
High -- | Low -- °F
--% Chance of Precip.
Yesterday
High -- | Low -- °F
Precip. -- in
5:57 AM 8:15 PM
Waning Crescent, 14% visible
Pressure 30.02 in
Visibility 9.0 miles
Clouds Clear
Heat Index 83 °F
Dew Point 73 °F
Humidity 82%
Rainfall 0.00 in
Snow Depth Not available.
UV 0 out of 12
Pollen 6.00 out of 12
Air Quality Not available.
Flu Activity Not available.
METAR KPOF 230053Z AUTO 00000KT 9SM CLR 27/20 A3003 RMK AO2 SLP164 T02720200

More Conditions Fewer Conditions

Pressure 30.02 in
Visibility 9.0 miles
Clouds Clear
Heat Index 83 °F
Dew Point 73 °F
Humidity 82%
Rainfall 0.00 in
Snow Depth Not available.
UV 0 out of 12
Pollen 6.00 out of 12
Air Quality Not available.
Flu Activity Not available.
METAR KPOF 230053Z AUTO 00000KT 9SM CLR 27/20 A3003 RMK AO2 SLP164 T02720200

More Conditions Fewer Conditions

10-Day Weather Forecast

Almanac

Astronomy

Jul. 22, 2014 Rise Set
Actual Time 5:57 AM CDT 8:15 PM CDT
Civil Twilight 5:27 AM CDT 8:45 PM CDT
Nautical Twilight 4:51 AM CDT 9:21 PM CDT
Astronomical Twilight 4:11 AM CDT 10:01 PM CDT
Moon 2:29 AM CDT (7/22) 4:54 PM CDT (7/22)
Length of Visible Light 15h 17m
Length of Day
14h 18m
Tomorrow will be 1m 29s shorter.
Waning Crescent, 14% of the Moon is Illuminated
Today
Waning Crescent
Jul 26
New
Aug 3
First Quarter
Aug 10
Full
Aug 17
Last Quarter

Today's Extremes

State Highs State Lows

Community

WunderPhotos

Upload Photos

1,736,423 photos uploaded!

Nearby

Snow Depth

Station Depth Elevation
No new snow has been reported.

Earthquake Activity

City Distance Mag. Time & Date
No recent earthquake activity has been reported nearby.
Minimum magnitude displayed is 2.5.

Coastal Water Temperatures

Place Temperature
No Stations Reporting

Nearby Weather Stations

Station Location Temp. Heat Index Dew Point Humidity Wind Precip. Elev Updated Type
rural, Whitewater, MO 79.4 °F 83 °F 73 °F 82% SE  at  0.0 mph 0.00 in / hr 410 ft 8:11 PM CDT Rapid Fire
MesoWest AVERT , Bloomfield, MO 89 °F 86 °F - - North  at  - 0.00 in / hr 309 ft 6:20 PM CDT MADIS
MesoWest DEXTER , Dexter, MO 84 °F 81 °F - - North  at  - 0.00 in / hr 362 ft 6:30 PM CDT MADIS
Dexterweather.com, Dexter, MO 80.7 °F 84 °F 70 °F 71% South  at  0.0 mph 0.00 in / hr 420 ft 8:11 PM CDT Rapid Fire

Show More Stations Show Fewer Stations